createdAt,value
2018-01-06T00:00:02.830Z,31.85
2018-01-06T00:02:29.477Z,31.85
2018-01-06T00:04:56.719Z,28.70
2018-01-06T00:07:24.395Z,32.72
2018-01-06T00:09:51.264Z,30.33
2018-01-06T00:12:18.178Z,37.50
2018-01-06T00:14:45.101Z,32.63
2018-01-06T00:17:11.986Z,27.73
2018-01-06T00:19:38.865Z,27.75
2018-01-06T00:22:05.742Z,29.42
2018-01-06T00:24:33.365Z,26.65
2018-01-06T00:27:00.273Z,25.83
2018-01-06T00:29:27.402Z,25.30
2018-01-06T00:31:54.555Z,26.10
2018-01-06T00:34:21.706Z,23.17
2018-01-06T00:36:48.638Z,27.35
2018-01-06T00:39:15.590Z,32.63
2018-01-06T00:41:42.740Z,24.55
2018-01-06T00:44:09.897Z,28.45
2018-01-06T00:46:36.760Z,27.90
2018-01-06T00:49:03.646Z,28.85
2018-01-06T00:51:30.545Z,28.87
2018-01-06T00:53:57.400Z,26.40
2018-01-06T00:56:24.324Z,25.67
2018-01-06T00:58:51.230Z,31.73
2018-01-06T01:01:18.508Z,29.50
2018-01-06T01:03:45.666Z,28.70
2018-01-06T01:06:12.813Z,29.33
2018-01-06T01:08:39.695Z,28.00
2018-01-06T01:11:06.914Z,27.80
2018-01-06T01:13:34.058Z,30.40
2018-01-06T01:16:01.208Z,28.03
2018-01-06T01:18:28.466Z,31.15
2018-01-06T01:20:55.360Z,32.60
2018-01-06T01:23:22.224Z,35.20
2018-01-06T01:25:49.405Z,34.55
2018-01-06T01:28:16.264Z,41.90
2018-01-06T01:30:43.210Z,35.95
2018-01-06T01:33:10.073Z,29.63
2018-01-06T01:35:37.293Z,33.00
2018-01-06T01:38:04.436Z,32.22
2018-01-06T01:40:31.354Z,38.13
2018-01-06T01:42:59.254Z,33.20
2018-01-06T01:45:26.181Z,38.77
2018-01-06T01:47:53.040Z,33.33
2018-01-06T01:50:20.132Z,38.85
2018-01-06T01:52:47.342Z,36.50
2018-01-06T01:55:14.218Z,35.53
2018-01-06T01:57:41.148Z,37.03
2018-01-06T02:00:08.033Z,36.40
2018-01-06T02:02:34.936Z,38.80
2018-01-06T02:05:01.818Z,35.83
2018-01-06T02:07:28.696Z,41.22
2018-01-06T02:09:55.591Z,34.58
2018-01-06T02:12:22.478Z,39.35
2018-01-06T02:14:49.749Z,39.33
2018-01-06T02:17:16.675Z,42.67
2018-01-06T02:19:43.610Z,44.95
2018-01-06T02:22:10.489Z,45.67
2018-01-06T02:24:37.628Z,46.20
2018-01-06T02:27:04.528Z,43.17
2018-01-06T02:29:31.421Z,44.08
2018-01-06T02:31:58.297Z,44.58
2018-01-06T02:34:25.524Z,41.42
2018-01-06T02:36:52.388Z,43.03
2018-01-06T02:39:19.260Z,44.40
2018-01-06T02:41:46.457Z,43.60
2018-01-06T02:44:13.346Z,44.13
2018-01-06T02:46:40.657Z,42.57
2018-01-06T02:49:07.804Z,40.42
2018-01-06T02:51:34.715Z,39.85
2018-01-06T02:54:01.905Z,46.75
2018-01-06T02:56:29.160Z,42.42
2018-01-06T02:58:56.050Z,42.08
2018-01-06T03:01:22.989Z,36.90
2018-01-06T03:03:50.198Z,43.42
2018-01-06T03:06:17.100Z,37.55
2018-01-06T03:08:44.422Z,36.83
2018-01-06T03:11:11.276Z,36.40
2018-01-06T03:13:38.137Z,37.50
2018-01-06T03:16:05.005Z,34.10
2018-01-06T03:18:32.183Z,32.45
2018-01-06T03:20:59.349Z,34.38
2018-01-06T03:23:26.225Z,36.78
2018-01-06T03:25:53.117Z,38.92
2018-01-06T03:28:20.197Z,35.20
2018-01-06T03:30:47.098Z,32.08
2018-01-06T03:33:14.262Z,31.10
2018-01-06T03:35:41.167Z,32.22
2018-01-06T03:38:08.025Z,36.00
2018-01-06T03:40:34.881Z,32.60
2018-01-06T03:43:02.005Z,44.25
2018-01-06T03:45:28.925Z,39.78
2018-01-06T03:47:56.141Z,37.45
2018-01-06T03:50:23.013Z,37.63
2018-01-06T03:52:49.876Z,41.33
2018-01-06T03:55:16.744Z,37.90
2018-01-06T03:57:43.605Z,46.40
2018-01-06T04:00:10.526Z,43.05
2018-01-06T04:02:37.435Z,40.30
2018-01-06T04:05:05.170Z,40.45
2018-01-06T04:07:32.312Z,42.97
2018-01-06T04:09:59.201Z,46.80
2018-01-06T04:12:26.414Z,50.03
2018-01-06T04:14:53.329Z,42.67
2018-01-06T04:17:20.504Z,45.58
2018-01-06T04:19:47.386Z,45.78
2018-01-06T04:22:14.522Z,50.97
2018-01-06T04:24:41.757Z,39.70
2018-01-06T04:27:08.640Z,45.80
2018-01-06T04:29:35.489Z,44.63
2018-01-06T04:32:02.374Z,46.95
2018-01-06T04:34:30.362Z,46.15
2018-01-06T04:36:57.233Z,46.42
2018-01-06T04:39:24.126Z,43.72
2018-01-06T04:41:51.306Z,43.00
2018-01-06T04:44:18.445Z,41.17
2018-01-06T04:46:45.701Z,49.13
2018-01-06T04:49:12.954Z,45.95
2018-01-06T04:51:39.850Z,45.90
2018-01-06T04:54:06.737Z,47.60
2018-01-06T04:56:33.890Z,49.70
2018-01-06T04:59:00.810Z,51.22
2018-01-06T05:01:27.960Z,46.55
2018-01-06T05:03:55.237Z,39.47
2018-01-06T05:06:22.133Z,42.22
2018-01-06T05:08:49.262Z,47.90
2018-01-06T05:11:16.154Z,47.38
2018-01-06T05:13:43.045Z,44.20
2018-01-06T05:16:09.908Z,39.25
2018-01-06T05:18:36.784Z,38.90
2018-01-06T05:21:03.645Z,40.47
2018-01-06T05:23:30.804Z,42.37
2018-01-06T05:25:57.668Z,57.33
2018-01-06T05:28:24.545Z,40.97
2018-01-06T05:30:51.422Z,41.05
2018-01-06T05:33:18.591Z,46.55
2018-01-06T05:35:45.843Z,45.53
2018-01-06T05:38:12.724Z,42.33
2018-01-06T05:40:39.571Z,40.35
2018-01-06T05:43:06.420Z,39.47
2018-01-06T05:45:33.325Z,41.28
2018-01-06T05:48:00.241Z,43.60
2018-01-06T05:50:27.129Z,42.15
2018-01-06T05:52:54.014Z,41.45
2018-01-06T05:55:20.914Z,40.53
2018-01-06T05:57:48.043Z,39.22
2018-01-06T06:00:14.929Z,43.05
2018-01-06T06:02:41.837Z,47.30
2018-01-06T06:05:08.696Z,38.35
2018-01-06T06:07:35.622Z,45.97
2018-01-06T06:10:02.796Z,42.55
2018-01-06T06:12:29.686Z,49.80
2018-01-06T06:14:56.625Z,45.43
2018-01-06T06:17:23.562Z,47.45
2018-01-06T06:19:50.461Z,43.40
2018-01-06T06:22:17.390Z,46.43
2018-01-06T06:24:44.246Z,50.00
2018-01-06T06:27:11.107Z,51.03
2018-01-06T06:29:37.972Z,51.00
2018-01-06T06:32:04.886Z,49.78
2018-01-06T06:34:31.769Z,63.25
2018-01-06T06:36:58.629Z,51.08
2018-01-06T06:39:25.526Z,46.37
2018-01-06T06:41:52.443Z,50.05
2018-01-06T06:44:19.596Z,54.15
2018-01-06T06:46:46.448Z,51.47
2018-01-06T06:49:13.594Z,38.22
2018-01-06T06:51:40.522Z,47.20
2018-01-06T06:54:07.685Z,47.25
2018-01-06T06:56:34.606Z,46.08
2018-01-06T06:59:01.600Z,46.17
2018-01-06T07:01:28.648Z,45.40
2018-01-06T07:03:55.569Z,44.38
2018-01-06T07:06:22.462Z,50.58
2018-01-06T07:08:49.670Z,42.85
2018-01-06T07:11:16.562Z,37.53
2018-01-06T07:13:43.473Z,42.50
2018-01-06T07:16:10.375Z,41.67
2018-01-06T07:18:38.171Z,34.55
2018-01-06T07:21:05.052Z,37.13
2018-01-06T07:23:31.929Z,37.50
2018-01-06T07:25:59.278Z,39.53
2018-01-06T07:28:26.460Z,41.22
2018-01-06T07:30:53.608Z,35.53
2018-01-06T07:33:20.766Z,34.95
2018-01-06T07:35:47.918Z,38.17
2018-01-06T07:38:14.792Z,32.58
2018-01-06T07:40:42.012Z,36.15
2018-01-06T07:43:09.156Z,36.90
2018-01-06T07:45:36.307Z,45.55
2018-01-06T07:48:03.205Z,38.25
2018-01-06T07:50:30.392Z,43.37
2018-01-06T07:52:57.314Z,41.30
2018-01-06T07:55:24.192Z,40.97
2018-01-06T07:57:51.090Z,45.12
2018-01-06T08:00:18.340Z,41.33
2018-01-06T08:02:45.545Z,42.97
2018-01-06T08:05:12.437Z,39.22
2018-01-06T08:07:39.301Z,38.95
2018-01-06T08:10:06.516Z,36.40
2018-01-06T08:12:33.632Z,38.85
2018-01-06T08:15:00.538Z,36.65
2018-01-06T08:17:27.406Z,35.35
2018-01-06T08:19:54.573Z,43.20
2018-01-06T08:22:21.730Z,43.20
2018-01-06T08:24:48.867Z,36.50
2018-01-06T08:27:15.752Z,38.03
2018-01-06T08:29:42.972Z,36.75
2018-01-06T08:32:09.866Z,44.83
2018-01-06T08:34:37.063Z,40.65
2018-01-06T08:37:03.918Z,38.10
2018-01-06T08:39:31.170Z,38.60
2018-01-06T08:41:58.310Z,38.40
2018-01-06T08:44:25.197Z,44.22
2018-01-06T08:46:52.410Z,39.70
2018-01-06T08:49:19.662Z,37.83
2018-01-06T08:51:46.527Z,44.85
2018-01-06T08:54:13.464Z,37.67
2018-01-06T08:56:40.357Z,37.95
2018-01-06T08:59:07.261Z,39.38
2018-01-06T09:01:34.117Z,42.95
2018-01-06T09:04:01.010Z,37.30
2018-01-06T09:06:27.877Z,38.92
2018-01-06T09:08:54.739Z,40.53
2018-01-06T09:11:21.966Z,35.75
2018-01-06T09:13:48.862Z,41.75
2018-01-06T09:16:15.756Z,40.30
2018-01-06T09:18:42.628Z,37.22
2018-01-06T09:21:09.522Z,42.17
2018-01-06T09:23:36.694Z,41.15
2018-01-06T09:26:03.593Z,37.60
2018-01-06T09:28:30.493Z,35.33
2018-01-06T09:30:57.365Z,39.23
2018-01-06T09:33:24.254Z,37.67
2018-01-06T09:35:51.769Z,37.10
2018-01-06T09:38:18.982Z,42.10
2018-01-06T09:40:45.858Z,44.55
2018-01-06T09:43:13.077Z,33.08
2018-01-06T09:45:40.230Z,35.10
2018-01-06T09:48:07.121Z,32.75
2018-01-06T09:50:33.996Z,32.75
2018-01-06T09:53:00.840Z,34.60
2018-01-06T09:55:27.736Z,36.50
2018-01-06T09:57:54.649Z,39.67
2018-01-06T10:00:21.551Z,36.38
2018-01-06T10:02:48.748Z,36.05
2018-01-06T10:05:15.755Z,32.28
2018-01-06T10:07:42.665Z,35.28
2018-01-06T10:10:09.569Z,33.30
2018-01-06T10:12:36.492Z,32.40
2018-01-06T10:15:03.394Z,37.88
2018-01-06T10:17:30.616Z,30.13
2018-01-06T10:19:57.978Z,36.03
2018-01-06T10:22:25.123Z,31.52
2018-01-06T10:24:52.043Z,32.10
2018-01-06T10:27:19.005Z,30.07
2018-01-06T10:29:46.032Z,35.40
2018-01-06T10:32:12.946Z,31.80
2018-01-06T10:34:39.814Z,35.43
2018-01-06T10:37:06.693Z,29.83
2018-01-06T10:39:33.581Z,35.03
2018-01-06T10:42:00.691Z,33.65
2018-01-06T10:44:27.581Z,37.67
2018-01-06T10:46:54.452Z,28.90
2018-01-06T10:49:21.358Z,31.52
2018-01-06T10:51:48.502Z,36.60
2018-01-06T10:54:15.364Z,28.87
2018-01-06T10:56:42.240Z,31.23
2018-01-06T10:59:09.412Z,34.97
2018-01-06T11:01:36.280Z,32.10
2018-01-06T11:04:03.410Z,29.80
2018-01-06T11:06:30.544Z,33.10
2018-01-06T11:08:57.481Z,33.20
2018-01-06T11:11:24.516Z,34.28
2018-01-06T11:13:51.393Z,27.48
2018-01-06T11:16:18.543Z,30.08
2018-01-06T11:18:45.753Z,27.35
2018-01-06T11:21:12.592Z,34.33
2018-01-06T11:23:39.473Z,33.10
2018-01-06T11:26:06.329Z,29.90
2018-01-06T11:28:33.237Z,30.23
2018-01-06T11:31:00.420Z,29.35
2018-01-06T11:33:27.578Z,33.80
2018-01-06T11:35:54.451Z,31.55
2018-01-06T11:38:21.350Z,29.53
2018-01-06T11:40:48.618Z,32.20
2018-01-06T11:43:15.760Z,31.73
2018-01-06T11:45:42.664Z,29.50
2018-01-06T11:48:09.862Z,33.40
2018-01-06T11:50:37.008Z,33.08
2018-01-06T11:53:04.165Z,34.77
2018-01-06T11:55:31.041Z,28.30
2018-01-06T11:57:57.912Z,30.95
2018-01-06T12:00:24.773Z,31.90
2018-01-06T12:02:51.666Z,35.13
2018-01-06T12:05:18.890Z,37.95
2018-01-06T12:07:46.036Z,28.90
2018-01-06T12:10:13.188Z,32.67
2018-01-06T12:12:40.085Z,30.27
2018-01-06T12:15:07.347Z,32.40
2018-01-06T12:17:34.220Z,35.15
2018-01-06T12:20:01.385Z,28.02
2018-01-06T12:22:28.267Z,32.53
2018-01-06T12:24:55.476Z,31.27
2018-01-06T12:27:22.733Z,26.05
2018-01-06T12:29:49.629Z,27.42
2018-01-06T12:32:16.498Z,28.58
2018-01-06T12:34:43.670Z,34.28
2018-01-06T12:37:10.558Z,30.15
2018-01-06T12:39:37.769Z,28.77
2018-01-06T12:42:04.652Z,29.92
2018-01-06T12:44:31.866Z,30.50
2018-01-06T12:46:58.732Z,29.50
2018-01-06T12:49:25.870Z,32.30
2018-01-06T12:51:53.106Z,27.75
2018-01-06T12:54:20.256Z,31.98
2018-01-06T12:56:47.195Z,29.12
2018-01-06T12:59:14.087Z,25.35
2018-01-06T13:01:41.300Z,29.73
2018-01-06T13:04:08.202Z,32.33
2018-01-06T13:06:35.089Z,27.20
2018-01-06T13:09:02.125Z,32.97
2018-01-06T13:11:29.074Z,30.48
2018-01-06T13:13:55.962Z,42.78
2018-01-06T13:16:23.073Z,29.30
2018-01-06T13:18:49.978Z,34.23
2018-01-06T13:21:16.865Z,33.17
2018-01-06T13:23:43.749Z,35.72
2018-01-06T13:26:10.626Z,32.45
2018-01-06T13:28:37.514Z,37.80
2018-01-06T13:31:04.434Z,36.17
2018-01-06T13:33:31.320Z,38.65
2018-01-06T13:35:58.203Z,38.33
2018-01-06T13:38:25.085Z,35.22
2018-01-06T13:40:51.997Z,34.60
2018-01-06T13:43:18.962Z,43.03
2018-01-06T13:45:45.874Z,46.37
2018-01-06T13:48:13.061Z,48.25
2018-01-06T13:50:39.916Z,44.70
2018-01-06T13:53:06.801Z,38.13
2018-01-06T13:55:33.977Z,36.40
2018-01-06T13:58:00.875Z,39.30
2018-01-06T14:00:27.758Z,41.67
2018-01-06T14:02:54.660Z,38.78
2018-01-06T14:05:21.784Z,44.45
2018-01-06T14:07:48.936Z,42.80
2018-01-06T14:10:15.850Z,42.38
2018-01-06T14:12:43.024Z,44.15
2018-01-06T14:15:09.892Z,38.22
2018-01-06T14:17:36.806Z,40.38
2018-01-06T14:20:03.666Z,37.40
2018-01-06T14:22:30.596Z,35.70
2018-01-06T14:24:57.510Z,40.70
2018-01-06T14:27:24.384Z,38.10
2018-01-06T14:29:51.481Z,34.40
2018-01-06T14:32:18.400Z,36.10
2018-01-06T14:34:45.282Z,33.70
2018-01-06T14:37:12.145Z,39.92
2018-01-06T14:39:39.022Z,37.35
2018-01-06T14:42:05.960Z,35.08
2018-01-06T14:44:33.111Z,35.40
2018-01-06T14:46:59.992Z,17.45
2018-01-06T14:49:26.887Z,11.20
2018-01-06T14:51:53.774Z,10.00
2018-01-06T14:54:20.705Z,13.25
2018-01-06T14:56:47.610Z,6.90
2018-01-06T14:59:14.498Z,6.90
2018-01-06T15:01:41.415Z,7.03
2018-01-06T15:04:08.309Z,6.80
2018-01-06T15:06:35.168Z,8.00
2018-01-06T15:09:02.366Z,8.00
2018-01-06T15:11:29.512Z,8.90
2018-01-06T15:13:56.353Z,9.20
2018-01-06T15:16:23.266Z,9.30
2018-01-06T15:18:50.121Z,10.20
2018-01-06T15:21:17.011Z,11.25
2018-01-06T15:23:43.929Z,9.05
2018-01-06T15:26:11.085Z,7.72
2018-01-06T15:28:38.232Z,7.80
2018-01-06T15:31:05.150Z,7.90
2018-01-06T15:33:32.004Z,9.40
2018-01-06T15:35:58.885Z,6.23
2018-01-06T15:38:26.019Z,6.15
2018-01-06T15:40:52.886Z,6.15
2018-01-06T15:43:19.748Z,6.25
2018-01-06T15:45:46.653Z,9.60
2018-01-06T15:48:13.501Z,7.93
2018-01-06T15:50:40.349Z,8.60
2018-01-06T15:53:07.485Z,7.00
2018-01-06T15:55:34.336Z,6.55
2018-01-06T15:58:01.188Z,5.87
2018-01-06T16:00:28.057Z,6.75
2018-01-06T16:02:54.957Z,6.40
2018-01-06T16:05:22.114Z,6.30
2018-01-06T16:07:49.001Z,7.90
2018-01-06T16:10:16.204Z,5.93
2018-01-06T16:12:43.366Z,6.78
2018-01-06T16:15:10.248Z,6.00
2018-01-06T16:17:37.122Z,5.50
2018-01-06T16:20:03.980Z,6.18
2018-01-06T16:22:31.146Z,6.03
2018-01-06T16:24:58.054Z,5.30
2018-01-06T16:27:24.893Z,7.27
2018-01-06T16:29:51.748Z,5.85
2018-01-06T16:32:18.588Z,5.93
2018-01-06T16:34:45.767Z,7.45
2018-01-06T16:37:12.639Z,7.60
2018-01-06T16:39:39.481Z,6.80
2018-01-06T16:42:06.337Z,6.93
2018-01-06T16:44:36.041Z,7.22
2018-01-06T16:47:02.901Z,5.90
2018-01-06T16:49:29.765Z,5.95
2018-01-06T16:51:56.958Z,6.43
2018-01-06T16:54:25.345Z,8.52
2018-01-06T16:56:52.345Z,6.87
2018-01-06T16:59:19.229Z,6.15
2018-01-06T17:01:46.097Z,5.65
2018-01-06T17:04:12.990Z,5.15
2018-01-06T17:06:39.872Z,5.80
2018-01-06T17:09:07.375Z,6.93
2018-01-06T17:11:34.481Z,5.90
2018-01-06T17:14:01.778Z,6.37
2018-01-06T17:16:28.841Z,6.78
2018-01-06T17:18:55.721Z,11.45
2018-01-06T17:21:22.852Z,12.73
2018-01-06T17:23:49.724Z,9.82
2018-01-06T17:26:16.949Z,22.05
2018-01-06T17:28:43.832Z,11.55
2018-01-06T17:31:10.730Z,8.30
2018-01-06T17:33:37.628Z,8.75
2018-01-06T17:36:04.508Z,7.00
2018-01-06T17:38:31.438Z,6.83
2018-01-06T17:40:58.623Z,5.60
2018-01-06T17:43:25.768Z,5.47
2018-01-06T17:45:52.646Z,6.32
2018-01-06T17:48:19.555Z,6.40
2018-01-06T17:50:46.458Z,5.90
2018-01-06T17:53:13.314Z,7.00
2018-01-06T17:55:40.510Z,6.18
2018-01-06T17:58:07.413Z,6.57
2018-01-06T18:00:34.308Z,7.57
2018-01-06T18:03:01.438Z,7.78
2018-01-06T18:05:28.588Z,7.68
2018-01-06T18:07:55.432Z,9.15
2018-01-06T18:10:22.308Z,8.48
2018-01-06T18:12:49.545Z,10.35
2018-01-06T18:15:16.398Z,8.65
2018-01-06T18:17:43.316Z,8.70
2018-01-06T18:20:10.578Z,7.70
2018-01-06T18:22:37.593Z,7.30
2018-01-06T18:25:04.381Z,7.60
2018-01-06T18:27:31.274Z,8.60
2018-01-06T18:29:58.146Z,9.80
2018-01-06T18:32:25.022Z,8.67
2018-01-06T18:34:51.914Z,10.00
2018-01-06T18:37:19.415Z,10.10
2018-01-06T18:39:46.316Z,9.63
2018-01-06T18:42:13.214Z,8.85
2018-01-06T18:44:40.114Z,8.48
2018-01-06T18:47:06.992Z,7.87
2018-01-06T18:49:33.914Z,8.13
2018-01-06T18:52:01.200Z,6.60
2018-01-06T18:54:28.064Z,8.47
2018-01-06T18:56:55.028Z,7.37
2018-01-06T18:59:21.916Z,7.33
2018-01-06T19:01:48.773Z,6.40
2018-01-06T19:04:15.670Z,6.33
2018-01-06T19:06:42.567Z,7.57
2018-01-06T19:09:09.681Z,7.00
2018-01-06T19:11:36.558Z,6.70
2018-01-06T19:14:03.438Z,6.85
2018-01-06T19:16:30.324Z,8.10
2018-01-06T19:18:57.232Z,7.65
2018-01-06T19:21:24.417Z,9.27
2018-01-06T19:23:51.302Z,6.97
2018-01-06T19:26:24.493Z,6.90
2018-01-06T19:28:57.165Z,7.32
2018-01-06T19:31:24.514Z,7.18
2018-01-06T19:33:51.382Z,9.98
2018-01-06T19:36:18.228Z,8.70
2018-01-06T19:38:45.093Z,8.48
2018-01-06T19:41:11.949Z,8.38
2018-01-06T19:43:38.800Z,9.32
2018-01-06T19:46:05.733Z,10.00
2018-01-06T19:48:32.622Z,10.57
2018-01-06T19:50:59.850Z,9.93
2018-01-06T19:53:26.762Z,10.50
2018-01-06T19:55:53.748Z,7.80
2018-01-06T19:58:20.596Z,9.05
2018-01-06T20:00:47.464Z,6.90
2018-01-06T20:03:14.677Z,8.17
2018-01-06T20:05:41.536Z,6.20
2018-01-06T20:08:08.432Z,6.95
2018-01-06T20:10:35.284Z,6.03
2018-01-06T20:13:02.159Z,5.22
2018-01-06T20:15:29.056Z,6.80
2018-01-06T20:17:56.247Z,8.18
2018-01-06T20:20:23.134Z,6.45
2018-01-06T20:22:50.046Z,4.90
2018-01-06T20:25:16.942Z,4.65
2018-01-06T20:27:43.800Z,5.10
2018-01-06T20:30:11.061Z,6.15
2018-01-06T20:32:37.922Z,6.22
2018-01-06T20:35:04.780Z,5.40
2018-01-06T20:37:31.641Z,8.02
2018-01-06T20:39:58.544Z,5.45
2018-01-06T20:42:25.700Z,4.47
2018-01-06T20:44:52.595Z,5.50
2018-01-06T20:47:19.497Z,5.73
2018-01-06T20:49:46.636Z,5.10
2018-01-06T20:52:13.796Z,3.37
2018-01-06T20:54:40.644Z,1.85
2018-01-06T20:57:07.501Z,4.37
2018-01-06T20:59:34.365Z,3.83
2018-01-06T21:02:01.204Z,3.95
2018-01-06T21:04:28.094Z,5.32
2018-01-06T21:06:54.961Z,6.28
2018-01-06T21:09:21.796Z,2.72
2018-01-06T21:11:48.695Z,3.80
2018-01-06T21:14:15.595Z,1.30
2018-01-06T21:16:42.482Z,3.10
2018-01-06T21:19:09.386Z,4.35
2018-01-06T21:21:36.290Z,4.05
2018-01-06T21:24:03.258Z,2.30
2018-01-06T21:26:30.138Z,2.80
2018-01-06T21:28:57.089Z,2.58
2018-01-06T21:31:23.938Z,2.58
2018-01-06T21:33:50.822Z,3.50
2018-01-06T21:36:17.765Z,2.08
2018-01-06T21:38:44.622Z,1.50
2018-01-06T21:41:11.468Z,3.87
2018-01-06T21:43:38.354Z,2.60
2018-01-06T21:46:05.282Z,3.60
2018-01-06T21:48:32.214Z,5.83
2018-01-06T21:50:59.357Z,3.90
2018-01-06T21:53:26.221Z,4.20
2018-01-06T21:55:53.076Z,2.17
2018-01-06T21:58:19.944Z,5.35
2018-01-06T22:00:46.822Z,4.35
2018-01-06T22:03:13.850Z,2.12
2018-01-06T22:05:40.728Z,3.72
2018-01-06T22:08:07.871Z,4.35
2018-01-06T22:10:34.728Z,7.10
2018-01-06T22:13:01.632Z,3.15
2018-01-06T22:15:28.492Z,2.22
2018-01-06T22:17:55.332Z,4.12
2018-01-06T22:20:22.233Z,5.30
2018-01-06T22:22:49.518Z,4.00
2018-01-06T22:25:16.704Z,4.65
2018-01-06T22:27:43.609Z,5.17
2018-01-06T22:30:10.460Z,6.03
2018-01-06T22:32:37.300Z,4.17
2018-01-06T22:35:04.165Z,3.28
2018-01-06T22:37:31.675Z,3.10
2018-01-06T22:39:58.777Z,4.93
2018-01-06T22:42:25.928Z,4.40
2018-01-06T22:44:52.804Z,2.50
2018-01-06T22:47:20.030Z,2.73
2018-01-06T22:49:46.901Z,3.75
2018-01-06T22:52:14.021Z,3.30
2018-01-06T22:54:40.892Z,2.30
2018-01-06T22:57:07.806Z,7.10
2018-01-06T22:59:34.960Z,4.18
2018-01-06T23:02:01.808Z,2.00
2018-01-06T23:04:28.710Z,5.10
2018-01-06T23:06:55.896Z,3.97
2018-01-06T23:09:22.794Z,4.45
2018-01-06T23:11:49.669Z,4.18
2018-01-06T23:14:16.578Z,2.80
2018-01-06T23:16:43.449Z,5.12
2018-01-06T23:19:10.363Z,3.17
2018-01-06T23:21:37.225Z,4.18
2018-01-06T23:24:04.106Z,4.32
2018-01-06T23:26:31.262Z,3.45
2018-01-06T23:28:58.112Z,1.48
2018-01-06T23:31:24.996Z,3.90
2018-01-06T23:33:51.910Z,1.92
2018-01-06T23:36:19.070Z,4.93
2018-01-06T23:38:46.189Z,2.67
2018-01-06T23:41:13.068Z,1.85
2018-01-06T23:43:40.289Z,5.78
2018-01-06T23:46:07.179Z,3.17
2018-01-06T23:48:34.385Z,6.47
2018-01-06T23:51:01.249Z,4.35
2018-01-06T23:53:28.377Z,2.45
2018-01-06T23:55:55.315Z,2.58
2018-01-06T23:58:22.172Z,4.28
